Sti Gauntlet — V7HH9 — position and weather

sailwx.info

Track history (hours):
 
Tides and Currents Weather Stations Pressure Air Temp Water Temp Dewpoint Dewpoint Depression Visibility Wind Speed Wind Dir Waves Ship Positions

Sti Gauntlet

Last reported at 2018-Apr-16 03:55 UTC. Time now 2018-Apr-21 17:12 UTC.
Position N 28°08' W 016°13'.

Length 249 m; draft 13.2 m.

Type: Tanker. MMSI: 538005825.

Date/timePositionNaut miles runAvg speedWind from/ knotsBaromVisibWave heightAir tempDewpointWater temp
2018-Apr-16 03:55N 28°08' W 016°13'613.5
2018-Apr-16 03:30N 28°13' W 016°08'713.6
2018-Apr-16 03:00N 28°18' W 016°03'713.3
2018-Apr-16 02:30N 28°23' W 015°59'713.1
2018-Apr-16 02:00N 28°28' W 015°54'613.1
2018-Apr-16 01:30N 28°33' W 015°49'613.0
2018-Apr-16 01:00N 28°38' W 015°44'612.8
2018-Apr-16 00:30N 28°43' W 015°40'612.7
2018-Apr-16 00:00N 28°48' W 015°35'612.8
2018-Apr-15 23:30N 28°53' W 015°31'612.7
2018-Apr-15 23:00N 28°59' W 015°28'  
2018-Apr-11 15:46N 47°57' W 006°33'1311.3
2018-Apr-11 14:37N 48°08' W 006°22'411.0
2018-Apr-11 14:13N 48°12' W 006°19'5011.1
2018-Apr-11 09:43N 48°56' W 005°43'9511.4
2018-Apr-11 01:24N 49°43' W 003°37'511.5
2018-Apr-11 01:00N 49°45' W 003°31'711.7
2018-Apr-11 00:23N 49°49' W 003°21'512.1
2018-Apr-11 00:00N 49°51' W 003°15'612.6
2018-Apr-10 23:30N 49°54' W 003°07'612.9
2018-Apr-10 23:00N 49°58' W 002°58'713.1
2018-Apr-10 22:30N 49°60' W 002°48'713.5
2018-Apr-10 22:00N 50°01' W 002°38'913.6
2018-Apr-10 21:22N 50°04' W 002°25'513.6
2018-Apr-10 21:01N 50°05' W 002°18'713.5
2018-Apr-10 20:30N 50°07' W 002°08'713.3
2018-Apr-10 20:00N 50°08' W 001°58'612.9
2018-Apr-10 19:30N 50°10' W 001°48'612.5
2018-Apr-10 19:00N 50°11' W 001°38'612.2
2018-Apr-10 18:30N 50°13' W 001°29'611.8
2018-Apr-10 18:00N 50°15' W 001°20'611.4
2018-Apr-10 17:30N 50°16' W 001°12'711.4
2018-Apr-10 16:52N 50°19' W 001°01'411.2
2018-Apr-10 16:30N 50°20' W 000°55'2011.5
2018-Apr-10 14:45N 50°25' W 000°24'311.9
2018-Apr-10 14:30N 50°26' W 000°20'612.2
2018-Apr-10 14:00N 50°27' W 000°10'612.5
2018-Apr-10 13:30N 50°29' W 000°01'612.9
2018-Apr-10 13:00N 50°30' E 000°09'713.1
2018-Apr-10 12:30N 50°32' E 000°19'713.2
2018-Apr-10 12:00N 50°34' E 000°29'713.1
2018-Apr-10 11:30N 50°37' E 000°38'713.2
2018-Apr-10 10:59N 50°41' E 000°47'613.0
2018-Apr-10 10:30N 50°44' E 000°55'612.8
2018-Apr-10 10:00N 50°48' E 001°03'712.5
2018-Apr-10 09:28N 50°52' E 001°12'1011.8
2018-Apr-10 08:37N 50°59' E 001°24'211.2
2018-Apr-10 08:28N 50°60' E 001°26'511.0
2018-Apr-10 08:00N 51°04' E 001°31'510.7
2018-Apr-10 07:30N 51°07' E 001°37'611.0
2018-Apr-10 07:00N 51°11' E 001°43'611.3
2018-Apr-10 06:30N 51°16' E 001°48'611.9
2018-Apr-10 06:00N 51°22' E 001°52'612.1
2018-Apr-10 05:30N 51°27' E 001°56'612.7
2018-Apr-10 05:00N 51°32' E 002°03'613.0
2018-Apr-10 04:30N 51°36' E 002°11'713.3
2018-Apr-10 04:00N 51°41' E 002°18'713.3
2018-Apr-10 03:29N 51°46' E 002°26'6112.4
2018-Apr-09 22:32N 52°29' E 003°37'112.1
2018-Apr-09 22:29N 52°29' E 003°38'612.0
2018-Apr-09 22:00N 52°31' E 003°47'612.2
2018-Apr-09 21:30N 52°31' E 003°57'612.2
2018-Apr-09 21:00N 52°31' E 004°07'611.8
2018-Apr-09 20:30N 52°30' E 004°16'611.4
2018-Apr-09 20:00N 52°29' E 004°25'5 9.6
2018-Apr-09 19:30N 52°28' E 004°33'2 4.3
2018-Apr-09 19:00N 52°28' E 004°36'0 0.2
2018-Apr-09 18:30N 52°28' E 004°37'0 0.0
2018-Apr-09 18:00N 52°28' E 004°37'1 1.3
2018-Apr-09 17:31N 52°28' E 004°38'2 3.1
2018-Apr-09 17:00N 52°27' E 004°40'2 4.1
2018-Apr-09 16:31N 52°26' E 004°43'3 5.6
2018-Apr-09 16:00N 52°26' E 004°47'2 4.4
2018-Apr-09 15:30N 52°25' E 004°51'0 0.3
2018-Apr-09 14:59N 52°25' E 004°51'0 0.0
2018-Apr-09 14:29N 52°25' E 004°51'0 0.0
2018-Apr-09 13:59N 52°25' E 004°51'0 0.0
2018-Apr-09 13:29N 52°25' E 004°51'0 0.0
2018-Apr-09 12:59N 52°25' E 004°51'0 0.0
2018-Apr-09 12:29N 52°25' E 004°51'0 0.0
2018-Apr-09 11:59N 52°25' E 004°51'0 0.0
2018-Apr-09 11:29N 52°25' E 004°51'0 0.0
2018-Apr-09 10:59N 52°25' E 004°51'0 0.0
2018-Apr-09 10:26N 52°25' E 004°51'0 0.0
2018-Apr-09 09:59N 52°25' E 004°51'0 0.0
2018-Apr-09 09:26N 52°25' E 004°51'0 0.0
2018-Apr-09 08:59N 52°25' E 004°51'0 0.0
2018-Apr-09 08:29N 52°25' E 004°51'0 0.0
2018-Apr-09 07:59N 52°25' E 004°51'0 0.0
2018-Apr-09 07:29N 52°25' E 004°51'0 0.0
2018-Apr-09 06:59N 52°25' E 004°51'0 0.0
2018-Apr-09 06:29N 52°25' E 004°51'0 0.0
2018-Apr-09 05:56N 52°25' E 004°51'0 0.0
2018-Apr-09 05:29N 52°25' E 004°51'0 0.0
2018-Apr-09 04:59N 52°25' E 004°51'0 0.0
2018-Apr-09 04:29N 52°25' E 004°51'0 0.0
2018-Apr-09 03:59N 52°25' E 004°51'0 0.0
2018-Apr-09 03:29N 52°25' E 004°51'0 0.0
2018-Apr-09 02:58N 52°25' E 004°51'0 0.0
2018-Apr-09 02:28N 52°25' E 004°51'0 0.0
2018-Apr-09 01:49N 52°25' E 004°51'0 0.0
2018-Apr-09 01:28N 52°25' E 004°51'0 0.0
2018-Apr-09 00:58N 52°25' E 004°51'0 0.0
2018-Apr-09 00:28N 52°25' E 004°51'0 0.0
2018-Apr-08 23:58N 52°25' E 004°51'0 0.0
2018-Apr-08 23:28N 52°25' E 004°51'0 0.0
2018-Apr-08 22:59N 52°25' E 004°51'0 0.0
2018-Apr-08 22:28N 52°25' E 004°51'0 0.0
2018-Apr-08 21:59N 52°25' E 004°51'0 0.0
2018-Apr-08 21:29N 52°25' E 004°51'0 0.0
2018-Apr-08 20:59N 52°25' E 004°51'0 0.0
2018-Apr-08 20:30N 52°25' E 004°51'0 0.0
2018-Apr-08 20:00N 52°25' E 004°51'0 0.2
2018-Apr-08 19:30N 52°25' E 004°51'0 0.6
2018-Apr-08 18:59N 52°25' E 004°50'0 0.0
2018-Apr-08 18:26N 52°25' E 004°50'0 0.0
2018-Apr-08 17:59N 52°25' E 004°50'0 0.0
2018-Apr-08 17:29N 52°25' E 004°50'0 0.0
2018-Apr-08 16:56N 52°25' E 004°50'0 0.0
2018-Apr-08 16:29N 52°25' E 004°50'0 0.0
2018-Apr-08 15:59N 52°25' E 004°50'0 0.0
2018-Apr-08 15:29N 52°25' E 004°50'0 0.0
2018-Apr-08 14:59N 52°25' E 004°50'0 0.0
2018-Apr-08 14:28N 52°25' E 004°50'0 0.0
2018-Apr-08 13:56N 52°25' E 004°50'0 0.0
2018-Apr-08 13:29N 52°25' E 004°50'0 0.0
2018-Apr-08 12:59N 52°25' E 004°50'0 0.0
2018-Apr-08 12:29N 52°25' E 004°50'0 0.0
2018-Apr-08 11:56N 52°25' E 004°50'0 0.0
2018-Apr-08 11:29N 52°25' E 004°50'0 0.0
2018-Apr-08 10:59N 52°25' E 004°50'0 0.0
2018-Apr-08 10:26N 52°25' E 004°50'0 0.0
2018-Apr-08 09:59N 52°25' E 004°50'0 0.0
2018-Apr-08 09:26N 52°25' E 004°50'0 0.0
2018-Apr-08 08:59N 52°25' E 004°50'0 0.0
2018-Apr-08 08:30N 52°25' E 004°50'0 0.0
2018-Apr-08 07:59N 52°25' E 004°50'0 0.0
2018-Apr-08 07:28N 52°25' E 004°50'0 0.0
2018-Apr-08 06:58N 52°25' E 004°50'0 0.0
2018-Apr-08 06:28N 52°25' E 004°50'0 0.0
2018-Apr-08 05:55N 52°25' E 004°50'0 0.0
2018-Apr-08 05:28N 52°25' E 004°50'0 0.0
2018-Apr-08 04:58N 52°25' E 004°50'0 0.0
2018-Apr-08 04:28N 52°25' E 004°50'0 0.0
2018-Apr-08 03:58N 52°25' E 004°50'0 0.0
2018-Apr-08 03:25N 52°25' E 004°50'0 0.0
2018-Apr-08 02:58N 52°25' E 004°50'0 0.0
2018-Apr-08 02:28N 52°25' E 004°50'0 0.0
2018-Apr-08 01:58N 52°25' E 004°50'0 0.0
2018-Apr-08 01:30N 52°25' E 004°50'0 0.0
2018-Apr-08 00:59N 52°25' E 004°50'0 0.0
2018-Apr-08 00:29N 52°25' E 004°50'0 0.0
2018-Apr-07 23:56N 52°25' E 004°50'0 0.0
2018-Apr-07 23:29N 52°25' E 004°50'0 0.0
2018-Apr-07 22:59N 52°25' E 004°50'0 0.0
2018-Apr-07 22:29N 52°25' E 004°50'0 0.0
2018-Apr-07 21:59N 52°25' E 004°50'0 0.0
2018-Apr-07 21:29N 52°25' E 004°50'0 0.0
2018-Apr-07 20:56N 52°25' E 004°50'0 0.0
2018-Apr-07 20:29N 52°25' E 004°50'0 0.0
2018-Apr-07 19:59N 52°25' E 004°50'0 0.0
2018-Apr-07 19:29N 52°25' E 004°50'0 0.0
2018-Apr-07 18:59N 52°25' E 004°50'0 0.0
2018-Apr-07 18:29N 52°25' E 004°50'0 0.0
2018-Apr-07 17:59N 52°25' E 004°50'0 0.0
2018-Apr-07 17:29N 52°25' E 004°50'0 0.0
2018-Apr-07 16:56N 52°25' E 004°50'0 0.0
2018-Apr-07 16:27N 52°25' E 004°50'0 0.0
2018-Apr-07 16:00N 52°25' E 004°50'0 0.7
2018-Apr-07 15:31N 52°25' E 004°50'1 1.7
2018-Apr-07 15:01N 52°25' E 004°49'2 4.0
2018-Apr-07 14:30N 52°26' E 004°46'1 1.7
2018-Apr-07 14:00N 52°25' E 004°45'0 0.4
2018-Apr-07 13:28N 52°25' E 004°45'0 0.0
2018-Apr-07 13:01N 52°25' E 004°45'0 0.0
2018-Apr-07 12:28N 52°25' E 004°45'0 0.0
2018-Apr-07 11:52N 52°25' E 004°45'0 0.0
2018-Apr-07 11:28N 52°25' E 004°45'0 0.0
2018-Apr-07 11:01N 52°25' E 004°45'0 0.0
2018-Apr-07 10:31N 52°25' E 004°45'0 0.0
2018-Apr-07 09:58N 52°25' E 004°45'0 0.0
2018-Apr-07 09:31N 52°25' E 004°45'0 0.0
2018-Apr-07 08:49N 52°25' E 004°45'0 0.0
2018-Apr-07 08:25N 52°25' E 004°45'0 0.0
2018-Apr-07 07:52N 52°25' E 004°45'0 0.0
2018-Apr-07 07:28N 52°25' E 004°45'0 0.0
2018-Apr-07 06:58N 52°25' E 004°45'0 0.0
2018-Apr-07 06:31N 52°25' E 004°45'0 0.0
2018-Apr-07 05:58N 52°25' E 004°45'0 0.0
2018-Apr-07 05:31N 52°25' E 004°45'0 0.0
2018-Apr-07 05:01N 52°25' E 004°45'0 0.0
2018-Apr-07 04:28N 52°25' E 004°45'0 0.0
2018-Apr-07 03:58N 52°25' E 004°45'0 0.0
2018-Apr-07 03:31N 52°25' E 004°45'0 0.0
2018-Apr-07 03:01N 52°25' E 004°45'0 0.0
2018-Apr-07 02:31N 52°25' E 004°45'0 0.0
2018-Apr-07 01:58N 52°25' E 004°45'0 0.0
2018-Apr-07 01:31N 52°25' E 004°45'0 0.0
2018-Apr-07 01:01N 52°25' E 004°45'0 0.0
2018-Apr-07 00:31N 52°25' E 004°45'0 0.0
2018-Apr-07 00:01N 52°25' E 004°45'0 0.0
2018-Apr-06 23:28N 52°25' E 004°45'0 0.0
2018-Apr-06 22:55N 52°25' E 004°45'0 0.0
2018-Apr-06 22:31N 52°25' E 004°45'0 0.0
2018-Apr-06 21:55N 52°25' E 004°45'0 0.0
2018-Apr-06 21:31N 52°25' E 004°45'0 0.0
2018-Apr-06 20:58N 52°25' E 004°45'0 0.0
2018-Apr-06 20:28N 52°25' E 004°45'0 0.0
2018-Apr-06 20:01N 52°25' E 004°45'0 0.0
2018-Apr-06 19:28N 52°25' E 004°45'0 0.0
2018-Apr-06 19:01N 52°25' E 004°45'0 0.0
2018-Apr-06 18:28N 52°25' E 004°45'0 0.0
2018-Apr-06 18:01N 52°25' E 004°45'0 0.0
2018-Apr-06 17:31N 52°25' E 004°45'0 0.0
2018-Apr-06 17:01N 52°25' E 004°45'0 0.0
2018-Apr-06 16:28N 52°25' E 004°45'0 0.0
2018-Apr-06 16:01N 52°25' E 004°45'0 0.0
2018-Apr-06 15:25N 52°25' E 004°45'0 0.0
2018-Apr-06 15:01N 52°25' E 004°45'0 0.0
2018-Apr-06 14:28N 52°25' E 004°45'0 0.0
2018-Apr-06 13:55N 52°25' E 004°45'0 0.0
2018-Apr-06 13:28N 52°25' E 004°45'0 0.0
2018-Apr-06 12:58N 52°25' E 004°45'0 0.0
2018-Apr-06 12:28N 52°25' E 004°45'0 0.0
2018-Apr-06 11:55N 52°25' E 004°45'0 0.0
2018-Apr-06 11:31N 52°25' E 004°45'0 0.0
2018-Apr-06 11:01N 52°25' E 004°45'0 0.0
2018-Apr-06 10:28N 52°25' E 004°45'0 0.0
2018-Apr-06 09:58N 52°25' E 004°45'0 0.0
2018-Apr-06 09:31N 52°25' E 004°45'0 0.0
2018-Apr-06 09:01N 52°25' E 004°45'0 0.0
2018-Apr-06 08:31N 52°25' E 004°45'0 0.0
2018-Apr-06 08:01N 52°25' E 004°45'0 0.0
2018-Apr-06 07:31N 52°25' E 004°45'0 0.0
2018-Apr-06 07:01N 52°25' E 004°45'0 0.0
2018-Apr-06 06:31N 52°25' E 004°45'0 0.0
2018-Apr-06 05:40N 52°25' E 004°45'0 0.0
2018-Apr-06 05:31N 52°25' E 004°45'0 0.0
2018-Apr-06 05:01N 52°25' E 004°45'0 0.0
2018-Apr-06 04:25N 52°25' E 004°45'  
Track history (hours):
 
Tides and Currents Weather Stations Pressure Air Temp Water Temp Dewpoint Dewpoint Depression Visibility Wind Speed Wind Dir Waves Ship Positions

Sti Gauntlet

Last reported at 2018-Apr-16 03:55 UTC. Time now 2018-Apr-21 17:12 UTC.
Position N 28°08' W 016°13'.

Length 249 m; draft 13.2 m.

Type: Tanker. MMSI: 538005825.

Date/timePositionNaut miles runAvg speedWind from/ knotsBaromVisibWave heightAir tempDewpointWater temp
2018-Apr-16 03:55N 28°08' W 016°13'613.5
2018-Apr-16 03:30N 28°13' W 016°08'713.6
2018-Apr-16 03:00N 28°18' W 016°03'713.3
2018-Apr-16 02:30N 28°23' W 015°59'713.1
2018-Apr-16 02:00N 28°28' W 015°54'613.1
2018-Apr-16 01:30N 28°33' W 015°49'613.0
2018-Apr-16 01:00N 28°38' W 015°44'612.8
2018-Apr-16 00:30N 28°43' W 015°40'612.7
2018-Apr-16 00:00N 28°48' W 015°35'612.8
2018-Apr-15 23:30N 28°53' W 015°31'612.7
2018-Apr-15 23:00N 28°59' W 015°28'  
2018-Apr-11 15:46N 47°57' W 006°33'1311.3
2018-Apr-11 14:37N 48°08' W 006°22'411.0
2018-Apr-11 14:13N 48°12' W 006°19'5011.1
2018-Apr-11 09:43N 48°56' W 005°43'9511.4
2018-Apr-11 01:24N 49°43' W 003°37'511.5
2018-Apr-11 01:00N 49°45' W 003°31'711.7
2018-Apr-11 00:23N 49°49' W 003°21'512.1
2018-Apr-11 00:00N 49°51' W 003°15'612.6
2018-Apr-10 23:30N 49°54' W 003°07'612.9
2018-Apr-10 23:00N 49°58' W 002°58'713.1
2018-Apr-10 22:30N 49°60' W 002°48'713.5
2018-Apr-10 22:00N 50°01' W 002°38'913.6
2018-Apr-10 21:22N 50°04' W 002°25'513.6
2018-Apr-10 21:01N 50°05' W 002°18'713.5
2018-Apr-10 20:30N 50°07' W 002°08'713.3
2018-Apr-10 20:00N 50°08' W 001°58'612.9
2018-Apr-10 19:30N 50°10' W 001°48'612.5
2018-Apr-10 19:00N 50°11' W 001°38'612.2
2018-Apr-10 18:30N 50°13' W 001°29'611.8
2018-Apr-10 18:00N 50°15' W 001°20'611.4
2018-Apr-10 17:30N 50°16' W 001°12'711.4
2018-Apr-10 16:52N 50°19' W 001°01'411.2
2018-Apr-10 16:30N 50°20' W 000°55'2011.5
2018-Apr-10 14:45N 50°25' W 000°24'311.9
2018-Apr-10 14:30N 50°26' W 000°20'612.2
2018-Apr-10 14:00N 50°27' W 000°10'612.5
2018-Apr-10 13:30N 50°29' W 000°01'612.9
2018-Apr-10 13:00N 50°30' E 000°09'713.1
2018-Apr-10 12:30N 50°32' E 000°19'713.2
2018-Apr-10 12:00N 50°34' E 000°29'713.1
2018-Apr-10 11:30N 50°37' E 000°38'713.2
2018-Apr-10 10:59N 50°41' E 000°47'613.0
2018-Apr-10 10:30N 50°44' E 000°55'612.8
2018-Apr-10 10:00N 50°48' E 001°03'712.5
2018-Apr-10 09:28N 50°52' E 001°12'1011.8
2018-Apr-10 08:37N 50°59' E 001°24'211.2
2018-Apr-10 08:28N 50°60' E 001°26'511.0
2018-Apr-10 08:00N 51°04' E 001°31'510.7
2018-Apr-10 07:30N 51°07' E 001°37'611.0
2018-Apr-10 07:00N 51°11' E 001°43'611.3
2018-Apr-10 06:30N 51°16' E 001°48'611.9
2018-Apr-10 06:00N 51°22' E 001°52'612.1
2018-Apr-10 05:30N 51°27' E 001°56'612.7
2018-Apr-10 05:00N 51°32' E 002°03'613.0
2018-Apr-10 04:30N 51°36' E 002°11'713.3
2018-Apr-10 04:00N 51°41' E 002°18'713.3
2018-Apr-10 03:29N 51°46' E 002°26'6112.4
2018-Apr-09 22:32N 52°29' E 003°37'112.1
2018-Apr-09 22:29N 52°29' E 003°38'612.0
2018-Apr-09 22:00N 52°31' E 003°47'612.2
2018-Apr-09 21:30N 52°31' E 003°57'612.2
2018-Apr-09 21:00N 52°31' E 004°07'611.8
2018-Apr-09 20:30N 52°30' E 004°16'611.4
2018-Apr-09 20:00N 52°29' E 004°25'5 9.6
2018-Apr-09 19:30N 52°28' E 004°33'2 4.3
2018-Apr-09 19:00N 52°28' E 004°36'0 0.2
2018-Apr-09 18:30N 52°28' E 004°37'0 0.0
2018-Apr-09 18:00N 52°28' E 004°37'1 1.3
2018-Apr-09 17:31N 52°28' E 004°38'2 3.1
2018-Apr-09 17:00N 52°27' E 004°40'2 4.1
2018-Apr-09 16:31N 52°26' E 004°43'3 5.6
2018-Apr-09 16:00N 52°26' E 004°47'2 4.4
2018-Apr-09 15:30N 52°25' E 004°51'0 0.3
2018-Apr-09 14:59N 52°25' E 004°51'0 0.0
2018-Apr-09 14:29N 52°25' E 004°51'0 0.0
2018-Apr-09 13:59N 52°25' E 004°51'0 0.0
2018-Apr-09 13:29N 52°25' E 004°51'0 0.0
2018-Apr-09 12:59N 52°25' E 004°51'0 0.0
2018-Apr-09 12:29N 52°25' E 004°51'0 0.0
2018-Apr-09 11:59N 52°25' E 004°51'0 0.0
2018-Apr-09 11:29N 52°25' E 004°51'0 0.0
2018-Apr-09 10:59N 52°25' E 004°51'0 0.0
2018-Apr-09 10:26N 52°25' E 004°51'0 0.0
2018-Apr-09 09:59N 52°25' E 004°51'0 0.0
2018-Apr-09 09:26N 52°25' E 004°51'0 0.0
2018-Apr-09 08:59N 52°25' E 004°51'0 0.0
2018-Apr-09 08:29N 52°25' E 004°51'0 0.0
2018-Apr-09 07:59N 52°25' E 004°51'0 0.0
2018-Apr-09 07:29N 52°25' E 004°51'0 0.0
2018-Apr-09 06:59N 52°25' E 004°51'0 0.0
2018-Apr-09 06:29N 52°25' E 004°51'0 0.0
2018-Apr-09 05:56N 52°25' E 004°51'0 0.0
2018-Apr-09 05:29N 52°25' E 004°51'0 0.0
2018-Apr-09 04:59N 52°25' E 004°51'0 0.0
2018-Apr-09 04:29N 52°25' E 004°51'0 0.0
2018-Apr-09 03:59N 52°25' E 004°51'0 0.0
2018-Apr-09 03:29N 52°25' E 004°51'0 0.0
2018-Apr-09 02:58N 52°25' E 004°51'0 0.0
2018-Apr-09 02:28N 52°25' E 004°51'0 0.0
2018-Apr-09 01:49N 52°25' E 004°51'0 0.0
2018-Apr-09 01:28N 52°25' E 004°51'0 0.0
2018-Apr-09 00:58N 52°25' E 004°51'0 0.0
2018-Apr-09 00:28N 52°25' E 004°51'0 0.0
2018-Apr-08 23:58N 52°25' E 004°51'0 0.0
2018-Apr-08 23:28N 52°25' E 004°51'0 0.0
2018-Apr-08 22:59N 52°25' E 004°51'0 0.0
2018-Apr-08 22:28N 52°25' E 004°51'0 0.0
2018-Apr-08 21:59N 52°25' E 004°51'0 0.0
2018-Apr-08 21:29N 52°25' E 004°51'0 0.0
2018-Apr-08 20:59N 52°25' E 004°51'0 0.0
2018-Apr-08 20:30N 52°25' E 004°51'0 0.0
2018-Apr-08 20:00N 52°25' E 004°51'0 0.2
2018-Apr-08 19:30N 52°25' E 004°51'0 0.6
2018-Apr-08 18:59N 52°25' E 004°50'0 0.0
2018-Apr-08 18:26N 52°25' E 004°50'0 0.0
2018-Apr-08 17:59N 52°25' E 004°50'0 0.0
2018-Apr-08 17:29N 52°25' E 004°50'0 0.0
2018-Apr-08 16:56N 52°25' E 004°50'0 0.0
2018-Apr-08 16:29N 52°25' E 004°50'0 0.0
2018-Apr-08 15:59N 52°25' E 004°50'0 0.0
2018-Apr-08 15:29N 52°25' E 004°50'0 0.0
2018-Apr-08 14:59N 52°25' E 004°50'0 0.0
2018-Apr-08 14:28N 52°25' E 004°50'0 0.0
2018-Apr-08 13:56N 52°25' E 004°50'0 0.0
2018-Apr-08 13:29N 52°25' E 004°50'0 0.0
2018-Apr-08 12:59N 52°25' E 004°50'0 0.0
2018-Apr-08 12:29N 52°25' E 004°50'0 0.0
2018-Apr-08 11:56N 52°25' E 004°50'0 0.0
2018-Apr-08 11:29N 52°25' E 004°50'0 0.0
2018-Apr-08 10:59N 52°25' E 004°50'0 0.0
2018-Apr-08 10:26N 52°25' E 004°50'0 0.0
2018-Apr-08 09:59N 52°25' E 004°50'0 0.0
2018-Apr-08 09:26N 52°25' E 004°50'0 0.0
2018-Apr-08 08:59N 52°25' E 004°50'0 0.0
2018-Apr-08 08:30N 52°25' E 004°50'0 0.0
2018-Apr-08 07:59N 52°25' E 004°50'0 0.0
2018-Apr-08 07:28N 52°25' E 004°50'0 0.0
2018-Apr-08 06:58N 52°25' E 004°50'0 0.0
2018-Apr-08 06:28N 52°25' E 004°50'0 0.0
2018-Apr-08 05:55N 52°25' E 004°50'0 0.0
2018-Apr-08 05:28N 52°25' E 004°50'0 0.0
2018-Apr-08 04:58N 52°25' E 004°50'0 0.0
2018-Apr-08 04:28N 52°25' E 004°50'0 0.0
2018-Apr-08 03:58N 52°25' E 004°50'0 0.0
2018-Apr-08 03:25N 52°25' E 004°50'0 0.0
2018-Apr-08 02:58N 52°25' E 004°50'0 0.0
2018-Apr-08 02:28N 52°25' E 004°50'0 0.0
2018-Apr-08 01:58N 52°25' E 004°50'0 0.0
2018-Apr-08 01:30N 52°25' E 004°50'0 0.0
2018-Apr-08 00:59N 52°25' E 004°50'0 0.0
2018-Apr-08 00:29N 52°25' E 004°50'0 0.0
2018-Apr-07 23:56N 52°25' E 004°50'0 0.0
2018-Apr-07 23:29N 52°25' E 004°50'0 0.0
2018-Apr-07 22:59N 52°25' E 004°50'0 0.0
2018-Apr-07 22:29N 52°25' E 004°50'0 0.0
2018-Apr-07 21:59N 52°25' E 004°50'0 0.0
2018-Apr-07 21:29N 52°25' E 004°50'0 0.0
2018-Apr-07 20:56N 52°25' E 004°50'0 0.0
2018-Apr-07 20:29N 52°25' E 004°50'0 0.0
2018-Apr-07 19:59N 52°25' E 004°50'0 0.0
2018-Apr-07 19:29N 52°25' E 004°50'0 0.0
2018-Apr-07 18:59N 52°25' E 004°50'0 0.0
2018-Apr-07 18:29N 52°25' E 004°50'0 0.0
2018-Apr-07 17:59N 52°25' E 004°50'0 0.0
2018-Apr-07 17:29N 52°25' E 004°50'0 0.0
2018-Apr-07 16:56N 52°25' E 004°50'0 0.0
2018-Apr-07 16:27N 52°25' E 004°50'0 0.0
2018-Apr-07 16:00N 52°25' E 004°50'0 0.7
2018-Apr-07 15:31N 52°25' E 004°50'1 1.7
2018-Apr-07 15:01N 52°25' E 004°49'2 4.0
2018-Apr-07 14:30N 52°26' E 004°46'1 1.7
2018-Apr-07 14:00N 52°25' E 004°45'0 0.4
2018-Apr-07 13:28N 52°25' E 004°45'0 0.0
2018-Apr-07 13:01N 52°25' E 004°45'0 0.0
2018-Apr-07 12:28N 52°25' E 004°45'0 0.0
2018-Apr-07 11:52N 52°25' E 004°45'0 0.0
2018-Apr-07 11:28N 52°25' E 004°45'0 0.0
2018-Apr-07 11:01N 52°25' E 004°45'0 0.0
2018-Apr-07 10:31N 52°25' E 004°45'0 0.0
2018-Apr-07 09:58N 52°25' E 004°45'0 0.0
2018-Apr-07 09:31N 52°25' E 004°45'0 0.0
2018-Apr-07 08:49N 52°25' E 004°45'0 0.0
2018-Apr-07 08:25N 52°25' E 004°45'0 0.0
2018-Apr-07 07:52N 52°25' E 004°45'0 0.0
2018-Apr-07 07:28N 52°25' E 004°45'0 0.0
2018-Apr-07 06:58N 52°25' E 004°45'0 0.0
2018-Apr-07 06:31N 52°25' E 004°45'0 0.0
2018-Apr-07 05:58N 52°25' E 004°45'0 0.0
2018-Apr-07 05:31N 52°25' E 004°45'0 0.0
2018-Apr-07 05:01N 52°25' E 004°45'0 0.0
2018-Apr-07 04:28N 52°25' E 004°45'0 0.0
2018-Apr-07 03:58N 52°25' E 004°45'0 0.0
2018-Apr-07 03:31N 52°25' E 004°45'0 0.0
2018-Apr-07 03:01N 52°25' E 004°45'0 0.0
2018-Apr-07 02:31N 52°25' E 004°45'0 0.0
2018-Apr-07 01:58N 52°25' E 004°45'0 0.0
2018-Apr-07 01:31N 52°25' E 004°45'0 0.0
2018-Apr-07 01:01N 52°25' E 004°45'0 0.0
2018-Apr-07 00:31N 52°25' E 004°45'0 0.0
2018-Apr-07 00:01N 52°25' E 004°45'0 0.0
2018-Apr-06 23:28N 52°25' E 004°45'0 0.0
2018-Apr-06 22:55N 52°25' E 004°45'0 0.0
2018-Apr-06 22:31N 52°25' E 004°45'0 0.0
2018-Apr-06 21:55N 52°25' E 004°45'0 0.0
2018-Apr-06 21:31N 52°25' E 004°45'0 0.0
2018-Apr-06 20:58N 52°25' E 004°45'0 0.0
2018-Apr-06 20:28N 52°25' E 004°45'0 0.0
2018-Apr-06 20:01N 52°25' E 004°45'0 0.0
2018-Apr-06 19:28N 52°25' E 004°45'0 0.0
2018-Apr-06 19:01N 52°25' E 004°45'0 0.0
2018-Apr-06 18:28N 52°25' E 004°45'0 0.0
2018-Apr-06 18:01N 52°25' E 004°45'0 0.0
2018-Apr-06 17:31N 52°25' E 004°45'0 0.0
2018-Apr-06 17:01N 52°25' E 004°45'0 0.0
2018-Apr-06 16:28N 52°25' E 004°45'0 0.0
2018-Apr-06 16:01N 52°25' E 004°45'0 0.0
2018-Apr-06 15:25N 52°25' E 004°45'0 0.0
2018-Apr-06 15:01N 52°25' E 004°45'0 0.0
2018-Apr-06 14:28N 52°25' E 004°45'0 0.0
2018-Apr-06 13:55N 52°25' E 004°45'0 0.0
2018-Apr-06 13:28N 52°25' E 004°45'0 0.0
2018-Apr-06 12:58N 52°25' E 004°45'0 0.0
2018-Apr-06 12:28N 52°25' E 004°45'0 0.0
2018-Apr-06 11:55N 52°25' E 004°45'0 0.0
2018-Apr-06 11:31N 52°25' E 004°45'0 0.0
2018-Apr-06 11:01N 52°25' E 004°45'0 0.0
2018-Apr-06 10:28N 52°25' E 004°45'0 0.0
2018-Apr-06 09:58N 52°25' E 004°45'0 0.0
2018-Apr-06 09:31N 52°25' E 004°45'0 0.0
2018-Apr-06 09:01N 52°25' E 004°45'0 0.0
2018-Apr-06 08:31N 52°25' E 004°45'0 0.0
2018-Apr-06 08:01N 52°25' E 004°45'0 0.0
2018-Apr-06 07:31N 52°25' E 004°45'0 0.0
2018-Apr-06 07:01N 52°25' E 004°45'0 0.0
2018-Apr-06 06:31N 52°25' E 004°45'0 0.0
2018-Apr-06 05:40N 52°25' E 004°45'0 0.0
2018-Apr-06 05:31N 52°25' E 004°45'0 0.0
2018-Apr-06 05:01N 52°25' E 004°45'0 0.0
2018-Apr-06 04:25N 52°25' E 004°45'  

Dump ship's entire track history